createdAt,value
2019-06-15T00:00:05.793Z,24.31
2019-06-15T00:01:06.028Z,24.31
2019-06-15T00:02:05.872Z,24.25
2019-06-15T00:03:05.314Z,24.25
2019-06-15T00:04:05.317Z,24.31
2019-06-15T00:05:05.330Z,24.19
2019-06-15T00:06:05.888Z,24.06
2019-06-15T00:07:06.131Z,24.00
2019-06-15T00:08:05.279Z,23.94
2019-06-15T00:09:05.887Z,23.88
2019-06-15T00:10:05.645Z,23.94
2019-06-15T00:11:05.472Z,23.94
2019-06-15T00:12:05.554Z,24.06
2019-06-15T00:13:06.030Z,24.12
2019-06-15T00:14:05.727Z,24.12
2019-06-15T00:15:05.563Z,24.19
2019-06-15T00:16:06.795Z,24.38
2019-06-15T00:17:05.243Z,24.44
2019-06-15T00:18:05.459Z,24.50
2019-06-15T00:19:05.551Z,24.62
2019-06-15T00:20:06.040Z,24.75
2019-06-15T00:21:05.957Z,24.88
2019-06-15T00:22:05.485Z,25.19
2019-06-15T00:23:07.082Z,25.06
2019-06-15T00:24:05.737Z,25.06
2019-06-15T00:25:06.465Z,24.94
2019-06-15T00:26:05.155Z,25.00
2019-06-15T00:27:05.865Z,25.00
2019-06-15T00:28:05.720Z,24.81
2019-06-15T00:29:05.151Z,24.62
2019-06-15T00:30:05.596Z,24.69
2019-06-15T00:31:05.329Z,24.69
2019-06-15T00:32:05.401Z,24.56
2019-06-15T00:33:06.205Z,24.38
2019-06-15T00:34:06.068Z,24.19
2019-06-15T00:35:05.484Z,24.06
2019-06-15T00:36:05.790Z,23.94
2019-06-15T00:37:05.560Z,24.00
2019-06-15T00:38:06.069Z,23.88
2019-06-15T00:39:05.310Z,23.88
2019-06-15T00:40:05.410Z,23.94
2019-06-15T00:41:05.886Z,23.94
2019-06-15T00:42:06.154Z,23.88
2019-06-15T00:43:05.640Z,23.81
2019-06-15T00:44:05.933Z,23.81
2019-06-15T00:45:05.714Z,23.81
2019-06-15T00:46:06.060Z,23.88
2019-06-15T00:47:05.150Z,23.81
2019-06-15T00:48:05.987Z,23.81
2019-06-15T00:49:05.720Z,23.88
2019-06-15T00:50:05.967Z,23.88
2019-06-15T00:51:06.094Z,23.88
2019-06-15T00:52:05.791Z,23.88
2019-06-15T00:53:05.637Z,23.88
2019-06-15T00:54:06.053Z,23.94
2019-06-15T00:55:05.721Z,23.94
2019-06-15T00:56:05.466Z,24.06
2019-06-15T00:57:05.322Z,24.00
2019-06-15T00:58:05.871Z,24.00
2019-06-15T00:59:05.980Z,24.00
2019-06-15T01:00:05.325Z,24.00
2019-06-15T01:01:05.801Z,24.12
2019-06-15T01:02:05.552Z,24.12
2019-06-15T01:03:05.156Z,24.06
2019-06-15T01:04:05.999Z,24.06
2019-06-15T01:05:05.470Z,24.00
2019-06-15T01:06:05.152Z,24.00
2019-06-15T01:07:06.039Z,24.06
2019-06-15T01:08:05.888Z,24.06
2019-06-15T01:09:06.108Z,24.06
2019-06-15T01:10:05.725Z,24.06
2019-06-15T01:11:06.039Z,24.00
2019-06-15T01:12:05.257Z,24.06
2019-06-15T01:13:05.627Z,24.00
2019-06-15T01:14:06.041Z,23.94
2019-06-15T01:15:05.323Z,23.81
2019-06-15T01:16:05.900Z,23.81
2019-06-15T01:17:05.492Z,24.00
2019-06-15T01:18:05.739Z,24.00
2019-06-15T01:19:05.898Z,24.00
2019-06-15T01:20:05.312Z,24.06
2019-06-15T01:21:05.992Z,24.00
2019-06-15T01:22:06.198Z,23.94
2019-06-15T01:23:05.344Z,23.94
2019-06-15T01:24:05.246Z,23.88
2019-06-15T01:25:06.021Z,23.81
2019-06-15T01:26:05.649Z,23.81
2019-06-15T01:27:06.050Z,23.81
2019-06-15T01:28:05.570Z,23.75
2019-06-15T01:29:05.720Z,23.81
2019-06-15T01:30:05.477Z,23.75
2019-06-15T01:31:05.866Z,23.69
2019-06-15T01:32:05.626Z,23.62
2019-06-15T01:33:05.958Z,23.75
2019-06-15T01:34:05.548Z,23.94
2019-06-15T01:35:05.428Z,23.94
2019-06-15T01:36:05.943Z,24.00
2019-06-15T01:37:05.314Z,24.12
2019-06-15T01:38:05.408Z,24.00
2019-06-15T01:39:06.120Z,23.75
2019-06-15T01:40:05.497Z,23.56
2019-06-15T01:41:06.027Z,23.56
2019-06-15T01:42:05.495Z,23.38
2019-06-15T01:43:05.720Z,23.38
2019-06-15T01:44:05.310Z,23.44
2019-06-15T01:45:05.959Z,23.50
2019-06-15T01:46:05.316Z,23.50
2019-06-15T01:47:05.950Z,23.56
2019-06-15T01:48:05.163Z,23.62
2019-06-15T01:49:05.303Z,23.62
2019-06-15T01:50:06.104Z,23.50
2019-06-15T01:51:05.816Z,23.50
2019-06-15T01:52:05.957Z,23.44
2019-06-15T01:53:05.658Z,23.44
2019-06-15T01:54:05.652Z,23.44
2019-06-15T01:55:19.878Z,23.38
2019-06-15T01:56:05.718Z,23.25
2019-06-15T01:57:05.233Z,23.25
2019-06-15T01:58:05.889Z,23.31
2019-06-15T01:59:06.161Z,23.25
2019-06-15T02:00:05.156Z,23.38
2019-06-15T02:01:06.001Z,23.44
2019-06-15T02:02:10.576Z,23.50
2019-06-15T02:03:06.026Z,23.50
2019-06-15T02:04:05.280Z,23.44
2019-06-15T02:05:05.734Z,23.44
2019-06-15T02:06:05.796Z,23.38
2019-06-15T02:07:06.109Z,23.38
2019-06-15T02:08:06.032Z,23.31
2019-06-15T02:09:05.558Z,23.31
2019-06-15T02:10:05.879Z,23.31
2019-06-15T02:11:06.025Z,23.25
2019-06-15T02:12:05.631Z,23.38
2019-06-15T02:13:05.491Z,23.25
2019-06-15T02:14:05.958Z,23.19
2019-06-15T02:15:05.881Z,23.25
2019-06-15T02:16:05.549Z,23.31
2019-06-15T02:17:05.434Z,23.38
2019-06-15T02:18:06.033Z,23.38
2019-06-15T02:19:05.787Z,23.44
2019-06-15T02:20:05.351Z,23.44
2019-06-15T02:21:06.023Z,23.38
2019-06-15T02:22:05.426Z,23.25
2019-06-15T02:23:05.499Z,23.19
2019-06-15T02:24:05.469Z,23.25
2019-06-15T02:25:05.979Z,23.19
2019-06-15T02:26:06.129Z,23.12
2019-06-15T02:27:05.789Z,23.19
2019-06-15T02:28:06.043Z,23.06
2019-06-15T02:29:05.662Z,23.06
2019-06-15T02:30:06.129Z,23.25
2019-06-15T02:31:05.525Z,23.31
2019-06-15T02:32:06.458Z,23.50
2019-06-15T02:33:05.811Z,23.62
2019-06-15T02:34:05.488Z,23.56
2019-06-15T02:35:06.056Z,23.38
2019-06-15T02:36:05.650Z,23.25
2019-06-15T02:37:05.262Z,23.12
2019-06-15T02:38:05.634Z,23.00
2019-06-15T02:39:05.721Z,23.00
2019-06-15T02:40:05.963Z,23.06
2019-06-15T02:41:05.243Z,23.19
2019-06-15T02:42:06.126Z,23.25
2019-06-15T02:43:05.880Z,23.25
2019-06-15T02:44:05.313Z,23.44
2019-06-15T02:45:05.227Z,23.38
2019-06-15T02:46:06.152Z,23.12
2019-06-15T02:47:05.484Z,23.06
2019-06-15T02:48:05.647Z,22.94
2019-06-15T02:49:06.229Z,22.81
2019-06-15T02:50:05.478Z,22.88
2019-06-15T02:51:05.640Z,23.00
2019-06-15T02:52:06.080Z,22.88
2019-06-15T02:53:05.556Z,23.00
2019-06-15T02:54:05.883Z,23.06
2019-06-15T02:55:05.416Z,23.00
2019-06-15T02:56:05.865Z,22.94
2019-06-15T02:57:05.827Z,22.81
2019-06-15T02:58:05.955Z,22.88
2019-06-15T02:59:05.872Z,22.81
2019-06-15T03:00:05.272Z,22.81
2019-06-15T03:01:05.650Z,22.81
2019-06-15T03:02:06.129Z,23.00
2019-06-15T03:03:05.487Z,23.06
2019-06-15T03:04:05.709Z,23.12
2019-06-15T03:05:06.054Z,23.12
2019-06-15T03:06:05.642Z,23.06
2019-06-15T03:07:05.262Z,23.25
2019-06-15T03:08:05.186Z,23.12
2019-06-15T03:09:06.043Z,23.25
2019-06-15T03:10:05.502Z,23.56
2019-06-15T03:11:05.234Z,23.44
2019-06-15T03:12:05.876Z,23.75
2019-06-15T03:13:05.410Z,23.88
2019-06-15T03:14:05.652Z,23.81
2019-06-15T03:15:05.796Z,23.81
2019-06-15T03:16:05.505Z,23.88
2019-06-15T03:17:05.646Z,23.94
2019-06-15T03:18:05.658Z,23.75
2019-06-15T03:19:05.968Z,23.94
2019-06-15T03:20:05.737Z,24.06
2019-06-15T03:21:06.093Z,24.00
2019-06-15T03:22:06.564Z,23.88
2019-06-15T03:23:05.405Z,23.75
2019-06-15T03:24:07.848Z,23.75
2019-06-15T03:25:05.497Z,23.88
2019-06-15T03:26:06.300Z,23.88
2019-06-15T03:27:06.997Z,24.06
2019-06-15T03:28:05.880Z,24.19
2019-06-15T03:29:06.025Z,24.25
2019-06-15T03:30:05.474Z,24.19
2019-06-15T03:31:06.060Z,24.50
2019-06-15T03:32:06.275Z,24.31
2019-06-15T03:33:05.865Z,24.25
2019-06-15T03:34:05.169Z,24.06
2019-06-15T03:35:05.485Z,23.88
2019-06-15T03:36:05.226Z,23.88
2019-06-15T03:37:05.725Z,23.94
2019-06-15T03:38:05.221Z,23.94
2019-06-15T03:39:05.563Z,23.94
2019-06-15T03:40:05.877Z,23.88
2019-06-15T03:41:06.115Z,23.88
2019-06-15T03:42:05.829Z,23.81
2019-06-15T03:43:06.109Z,23.75
2019-06-15T03:44:05.563Z,23.38
2019-06-15T03:45:05.241Z,23.44
2019-06-15T03:46:05.553Z,23.62
2019-06-15T03:47:05.804Z,23.69
2019-06-15T03:48:05.664Z,23.62
2019-06-15T03:49:05.790Z,23.75
2019-06-15T03:50:06.036Z,23.75
2019-06-15T03:51:05.875Z,23.69
2019-06-15T03:52:05.416Z,23.62
2019-06-15T03:53:05.708Z,23.56
2019-06-15T03:54:05.469Z,23.69
2019-06-15T03:55:05.475Z,23.75
2019-06-15T03:56:20.455Z,23.81
2019-06-15T03:57:05.658Z,23.88
2019-06-15T03:58:05.635Z,23.94
2019-06-15T03:59:06.123Z,23.88
2019-06-15T04:00:05.226Z,24.25
2019-06-15T04:01:06.929Z,24.38
2019-06-15T04:02:05.501Z,24.50
2019-06-15T04:03:06.447Z,24.69
2019-06-15T04:04:05.709Z,24.62
2019-06-15T04:05:05.320Z,24.69
2019-06-15T04:06:05.390Z,24.69
2019-06-15T04:07:05.867Z,24.69
2019-06-15T04:08:05.404Z,24.81
2019-06-15T04:09:05.978Z,24.94
2019-06-15T04:10:06.069Z,24.50
2019-06-15T04:11:05.315Z,24.69
2019-06-15T04:12:05.875Z,24.69
2019-06-15T04:13:05.722Z,24.69
2019-06-15T04:14:06.116Z,24.81
2019-06-15T04:15:05.646Z,25.00
2019-06-15T04:16:05.323Z,25.00
2019-06-15T04:17:05.815Z,25.00
2019-06-15T04:18:06.240Z,25.00
2019-06-15T04:19:06.136Z,25.19
2019-06-15T04:20:05.196Z,25.31
2019-06-15T04:21:05.641Z,25.25
2019-06-15T04:22:05.645Z,25.19
2019-06-15T04:23:06.039Z,25.38
2019-06-15T04:24:05.803Z,25.25
2019-06-15T04:25:05.837Z,25.12
2019-06-15T04:26:05.467Z,25.19
2019-06-15T04:27:05.473Z,25.06
2019-06-15T04:28:05.767Z,25.19
2019-06-15T04:29:05.463Z,25.31
2019-06-15T04:30:05.962Z,25.12
2019-06-15T04:31:05.499Z,25.12
2019-06-15T04:32:05.464Z,25.25
2019-06-15T04:33:05.589Z,25.31
2019-06-15T04:34:05.952Z,25.50
2019-06-15T04:35:05.656Z,25.81
2019-06-15T04:36:05.715Z,26.44
2019-06-15T04:37:05.569Z,26.12
2019-06-15T04:38:06.770Z,25.94
2019-06-15T04:39:05.498Z,26.00
2019-06-15T04:40:05.572Z,26.19
2019-06-15T04:41:06.116Z,26.25
2019-06-15T04:42:05.648Z,26.19
2019-06-15T04:43:05.900Z,26.06
2019-06-15T04:44:05.153Z,25.81
2019-06-15T04:45:05.721Z,25.75
2019-06-15T04:46:06.217Z,25.69
2019-06-15T04:47:05.490Z,25.56
2019-06-15T04:48:06.136Z,25.44
2019-06-15T04:49:05.393Z,25.31
2019-06-15T04:50:06.428Z,25.25
2019-06-15T04:51:05.416Z,25.06
2019-06-15T04:52:05.966Z,25.00
2019-06-15T04:53:05.644Z,24.94
2019-06-15T04:54:06.431Z,25.25
2019-06-15T04:55:05.743Z,25.50
2019-06-15T04:56:05.789Z,25.56
2019-06-15T04:57:05.654Z,25.69
2019-06-15T04:58:05.949Z,25.88
2019-06-15T04:59:05.573Z,26.19
2019-06-15T05:00:06.072Z,26.38
2019-06-15T05:01:05.395Z,26.06
2019-06-15T05:02:05.818Z,25.94
2019-06-15T05:03:05.248Z,25.88
2019-06-15T05:04:05.780Z,25.81
2019-06-15T05:05:06.739Z,25.75
2019-06-15T05:06:06.056Z,25.69
2019-06-15T05:07:06.213Z,25.75
2019-06-15T05:08:06.044Z,25.62
2019-06-15T05:09:05.163Z,25.62
2019-06-15T05:10:05.886Z,25.81
2019-06-15T05:11:05.299Z,25.88
2019-06-15T05:12:05.807Z,26.06
2019-06-15T05:13:06.300Z,26.19
2019-06-15T05:14:05.331Z,26.12
2019-06-15T05:15:05.554Z,26.06
2019-06-15T05:16:05.870Z,26.06
2019-06-15T05:17:05.880Z,26.00
2019-06-15T05:18:05.425Z,26.12
2019-06-15T05:19:05.669Z,26.19
2019-06-15T05:20:06.294Z,26.19
2019-06-15T05:21:05.366Z,26.12
2019-06-15T05:22:05.811Z,26.19
2019-06-15T05:23:05.501Z,26.12
2019-06-15T05:24:08.486Z,26.12
2019-06-15T05:25:05.344Z,26.69
2019-06-15T05:26:05.746Z,26.81
2019-06-15T05:27:06.663Z,26.69
2019-06-15T05:28:05.587Z,26.69
2019-06-15T05:29:05.660Z,26.62
2019-06-15T05:30:05.895Z,26.50
2019-06-15T05:31:06.205Z,26.38
2019-06-15T05:32:05.456Z,26.44
2019-06-15T05:33:05.416Z,26.50
2019-06-15T05:34:05.804Z,26.81
2019-06-15T05:35:05.336Z,27.19
2019-06-15T05:36:05.564Z,27.19
2019-06-15T05:37:05.893Z,27.25
2019-06-15T05:38:05.486Z,27.38
2019-06-15T05:39:05.330Z,27.56
2019-06-15T05:40:05.174Z,27.81
2019-06-15T05:41:05.975Z,28.12
2019-06-15T05:42:05.960Z,28.31
2019-06-15T05:43:05.409Z,28.50
2019-06-15T05:44:06.044Z,28.81
2019-06-15T05:45:05.498Z,29.00
2019-06-15T05:46:05.285Z,29.38
2019-06-15T05:47:05.330Z,29.44
2019-06-15T05:48:06.057Z,29.75
2019-06-15T05:49:05.958Z,30.06
2019-06-15T05:50:05.869Z,30.31
2019-06-15T05:51:05.636Z,30.25
2019-06-15T05:52:06.214Z,30.44
2019-06-15T05:53:05.785Z,30.75
2019-06-15T05:54:05.427Z,30.94
2019-06-15T05:55:05.565Z,31.00
2019-06-15T05:56:06.128Z,31.19
2019-06-15T05:57:18.372Z,31.31
2019-06-15T05:58:05.246Z,31.44
2019-06-15T05:59:05.590Z,31.62
2019-06-15T06:00:06.050Z,31.69
2019-06-15T06:01:05.654Z,31.81
2019-06-15T06:02:05.991Z,32.00
2019-06-15T06:03:06.135Z,32.06
2019-06-15T06:04:05.308Z,31.94
2019-06-15T06:05:06.116Z,32.00
2019-06-15T06:06:05.707Z,32.06
2019-06-15T06:07:05.965Z,32.25
2019-06-15T06:08:05.719Z,32.12
2019-06-15T06:09:05.229Z,32.19
2019-06-15T06:10:06.487Z,32.25
2019-06-15T06:11:06.281Z,32.44
2019-06-15T06:12:05.669Z,32.50
2019-06-15T06:13:06.064Z,32.62
2019-06-15T06:14:06.063Z,32.75
2019-06-15T06:15:05.415Z,32.81
2019-06-15T06:16:05.403Z,32.88
2019-06-15T06:17:06.120Z,32.94
2019-06-15T06:18:05.408Z,32.88
2019-06-15T06:19:05.339Z,32.81
2019-06-15T06:20:05.737Z,33.06
2019-06-15T06:21:05.575Z,33.38
2019-06-15T06:22:06.130Z,33.56
2019-06-15T06:23:05.987Z,33.50
2019-06-15T06:24:06.593Z,33.56
2019-06-15T06:25:05.243Z,33.62
2019-06-15T06:26:05.411Z,33.69
2019-06-15T06:27:05.404Z,33.69
2019-06-15T06:28:05.590Z,33.81
2019-06-15T06:29:05.165Z,33.88
2019-06-15T06:30:05.574Z,33.75
2019-06-15T06:31:05.253Z,33.69
2019-06-15T06:32:05.424Z,33.44
2019-06-15T06:33:05.192Z,33.44
2019-06-15T06:34:05.887Z,33.44
2019-06-15T06:35:05.358Z,33.56
2019-06-15T06:36:06.344Z,33.56
2019-06-15T06:37:06.295Z,33.44
2019-06-15T06:38:05.876Z,33.50
2019-06-15T06:39:05.255Z,33.44
2019-06-15T06:40:05.722Z,33.50
2019-06-15T06:41:05.645Z,33.62
2019-06-15T06:42:05.986Z,33.56
2019-06-15T06:43:06.116Z,33.50
2019-06-15T06:44:06.060Z,33.50
2019-06-15T06:45:05.880Z,33.56
2019-06-15T06:46:05.897Z,33.56
2019-06-15T06:47:05.890Z,33.62
2019-06-15T06:48:05.572Z,33.75
2019-06-15T06:49:05.521Z,33.81
2019-06-15T06:50:05.333Z,33.75
2019-06-15T06:51:05.981Z,33.88
2019-06-15T06:52:05.208Z,33.88
2019-06-15T06:53:05.879Z,33.88
2019-06-15T06:54:05.185Z,33.94
2019-06-15T06:55:05.383Z,34.00
2019-06-15T06:56:06.317Z,34.00
2019-06-15T06:57:05.328Z,34.00
2019-06-15T06:58:05.979Z,34.06
2019-06-15T06:59:05.955Z,34.00
2019-06-15T07:00:05.408Z,33.94
2019-06-15T07:01:06.035Z,34.00
2019-06-15T07:02:05.407Z,34.12
2019-06-15T07:03:05.334Z,34.44
2019-06-15T07:04:05.891Z,34.44
2019-06-15T07:05:05.633Z,34.56
2019-06-15T07:06:05.427Z,34.69
2019-06-15T07:07:06.134Z,34.75
2019-06-15T07:08:05.894Z,34.88
2019-06-15T07:09:10.253Z,35.06
2019-06-15T07:10:06.193Z,35.25
2019-06-15T07:11:05.460Z,35.38
2019-06-15T07:12:05.822Z,35.50
2019-06-15T07:13:05.348Z,35.56
2019-06-15T07:14:05.655Z,35.69
2019-06-15T07:15:05.639Z,35.81
2019-06-15T07:16:05.257Z,35.75
2019-06-15T07:17:06.203Z,35.81
2019-06-15T07:18:06.201Z,35.88
2019-06-15T07:19:05.725Z,35.94
2019-06-15T07:20:05.731Z,36.00
2019-06-15T07:21:06.195Z,36.00
2019-06-15T07:22:05.818Z,36.12
2019-06-15T07:23:05.419Z,36.19
2019-06-15T07:24:05.702Z,36.25
2019-06-15T07:25:05.145Z,36.31
2019-06-15T07:26:06.215Z,36.31
2019-06-15T07:27:05.408Z,36.94
2019-06-15T07:28:08.210Z,35.88
2019-06-15T07:29:05.186Z,36.19
2019-06-15T07:30:05.510Z,36.31
2019-06-15T07:31:05.880Z,36.31
2019-06-15T07:32:05.167Z,36.31
2019-06-15T07:33:05.661Z,36.38
2019-06-15T07:34:05.151Z,36.38
2019-06-15T07:35:06.105Z,36.31
2019-06-15T07:36:05.804Z,36.19
2019-06-15T07:37:05.654Z,36.25
2019-06-15T07:38:05.602Z,36.25
2019-06-15T07:39:06.051Z,36.19
2019-06-15T07:40:05.174Z,36.25
2019-06-15T07:41:05.816Z,36.12
2019-06-15T07:42:05.342Z,36.06
2019-06-15T07:43:06.306Z,36.06
2019-06-15T07:44:06.122Z,36.00
2019-06-15T07:45:05.564Z,36.00
2019-06-15T07:46:05.587Z,36.00
2019-06-15T07:47:05.502Z,36.00
2019-06-15T07:48:06.233Z,36.00
2019-06-15T07:49:05.595Z,35.94
2019-06-15T07:50:05.731Z,35.81
2019-06-15T07:51:06.228Z,35.94
2019-06-15T07:52:05.616Z,36.00
2019-06-15T07:53:05.313Z,36.06
2019-06-15T07:54:06.079Z,36.06
2019-06-15T07:55:05.419Z,36.06
2019-06-15T07:56:06.369Z,35.94
2019-06-15T07:57:05.878Z,35.81
2019-06-15T07:58:05.253Z,35.75
2019-06-15T07:59:05.416Z,35.75
2019-06-15T08:00:05.193Z,35.75
2019-06-15T08:01:06.177Z,35.94
2019-06-15T08:02:05.353Z,35.94
2019-06-15T08:03:05.750Z,35.94
2019-06-15T08:04:06.285Z,36.00
2019-06-15T08:05:05.742Z,36.00
2019-06-15T08:06:06.041Z,36.00
2019-06-15T08:07:05.825Z,36.00
2019-06-15T08:08:05.602Z,36.06
2019-06-15T08:09:05.864Z,35.94
2019-06-15T08:10:05.904Z,35.94
2019-06-15T08:11:05.966Z,36.06
2019-06-15T08:12:05.662Z,36.19
2019-06-15T08:13:05.450Z,36.19
2019-06-15T08:14:06.141Z,36.19
2019-06-15T08:15:05.282Z,36.19
2019-06-15T08:16:06.035Z,36.19
2019-06-15T08:17:05.503Z,36.06
2019-06-15T08:18:05.965Z,36.06
2019-06-15T08:19:05.274Z,36.06
2019-06-15T08:20:05.956Z,36.06
2019-06-15T08:21:05.673Z,36.00
2019-06-15T08:22:05.154Z,36.00
2019-06-15T08:23:06.130Z,36.00
2019-06-15T08:24:05.897Z,36.00
2019-06-15T08:25:05.876Z,36.06
2019-06-15T08:26:06.295Z,36.06
2019-06-15T08:27:06.031Z,36.06
2019-06-15T08:28:05.338Z,36.06
2019-06-15T08:29:05.485Z,36.12
2019-06-15T08:30:05.614Z,36.06
2019-06-15T08:31:05.876Z,36.06
2019-06-15T08:32:05.811Z,36.00
2019-06-15T08:33:05.880Z,35.88
2019-06-15T08:34:06.303Z,35.75
2019-06-15T08:35:05.387Z,35.75
2019-06-15T08:36:06.119Z,35.75
2019-06-15T08:37:05.481Z,35.69
2019-06-15T08:38:05.494Z,35.69
2019-06-15T08:39:05.562Z,35.75
2019-06-15T08:40:05.743Z,35.81
2019-06-15T08:41:05.739Z,35.81
2019-06-15T08:42:05.718Z,35.75
2019-06-15T08:43:05.408Z,35.81
2019-06-15T08:44:11.083Z,35.69
2019-06-15T08:45:05.497Z,35.75
2019-06-15T08:46:06.053Z,35.69
2019-06-15T08:47:05.956Z,35.62
2019-06-15T08:48:05.161Z,35.56
2019-06-15T08:49:06.033Z,35.62
2019-06-15T08:50:05.957Z,35.62
2019-06-15T08:51:05.809Z,35.56
2019-06-15T08:52:05.998Z,35.62
2019-06-15T08:53:05.654Z,35.69
2019-06-15T08:54:05.835Z,35.62
2019-06-15T08:55:06.282Z,35.62
2019-06-15T08:56:05.811Z,35.56
2019-06-15T08:57:05.274Z,35.56
2019-06-15T08:58:05.607Z,35.50
2019-06-15T08:59:05.238Z,35.50
2019-06-15T09:00:05.284Z,35.50
2019-06-15T09:01:05.595Z,35.50
2019-06-15T09:02:05.562Z,35.62
2019-06-15T09:03:05.919Z,35.62
2019-06-15T09:04:06.192Z,35.62
2019-06-15T09:05:05.385Z,35.56
2019-06-15T09:06:05.870Z,35.44
2019-06-15T09:07:05.313Z,35.44
2019-06-15T09:08:05.827Z,35.44
2019-06-15T09:09:06.030Z,35.38
2019-06-15T09:10:05.408Z,35.31
2019-06-15T09:11:05.990Z,35.19
2019-06-15T09:12:05.487Z,35.19
2019-06-15T09:13:05.912Z,35.25
2019-06-15T09:14:06.294Z,35.25
2019-06-15T09:15:05.440Z,35.12
2019-06-15T09:16:06.291Z,35.06
2019-06-15T09:17:05.549Z,35.06
2019-06-15T09:18:06.047Z,35.06
2019-06-15T09:19:05.410Z,35.12
2019-06-15T09:20:06.199Z,35.19
2019-06-15T09:21:06.037Z,35.19
2019-06-15T09:22:05.736Z,35.12
2019-06-15T09:23:05.911Z,35.06
2019-06-15T09:24:05.286Z,34.94
2019-06-15T09:25:05.756Z,34.88
2019-06-15T09:26:05.916Z,34.88
2019-06-15T09:27:05.664Z,34.88
2019-06-15T09:28:05.936Z,34.88
2019-06-15T09:29:11.047Z,34.69
2019-06-15T09:30:05.253Z,34.62
2019-06-15T09:31:06.221Z,34.62
2019-06-15T09:32:05.245Z,34.62
2019-06-15T09:33:05.656Z,34.62
2019-06-15T09:34:18.265Z,34.62
2019-06-15T09:35:06.111Z,34.56
2019-06-15T09:36:05.475Z,34.56
2019-06-15T09:37:05.353Z,34.50
2019-06-15T09:38:05.709Z,34.44
2019-06-15T09:39:06.053Z,34.44
2019-06-15T09:40:05.174Z,34.31
2019-06-15T09:41:05.552Z,34.31
2019-06-15T09:42:05.262Z,34.31
2019-06-15T09:43:05.427Z,34.31
2019-06-15T09:44:05.553Z,34.31
2019-06-15T09:45:05.243Z,34.19
2019-06-15T09:46:05.630Z,34.12
2019-06-15T09:47:06.214Z,34.00
2019-06-15T09:48:05.492Z,33.94
2019-06-15T09:49:06.090Z,33.88
2019-06-15T09:50:05.107Z,33.81
2019-06-15T09:51:05.506Z,33.75
2019-06-15T09:52:05.972Z,33.75
2019-06-15T09:53:05.658Z,33.69
2019-06-15T09:54:06.223Z,33.62
2019-06-15T09:55:06.036Z,33.62
2019-06-15T09:56:05.347Z,33.69
2019-06-15T09:57:05.502Z,33.62
2019-06-15T09:58:06.127Z,33.75
2019-06-15T09:59:05.595Z,33.75
2019-06-15T10:00:05.910Z,33.75
2019-06-15T10:01:05.412Z,33.75
2019-06-15T10:02:05.660Z,33.88
2019-06-15T10:03:06.208Z,33.75
2019-06-15T10:04:05.433Z,33.56
2019-06-15T10:05:06.227Z,33.50
2019-06-15T10:06:05.903Z,33.44
2019-06-15T10:07:05.264Z,33.38
2019-06-15T10:08:06.266Z,33.44
2019-06-15T10:09:05.565Z,33.50
2019-06-15T10:10:06.078Z,33.69
2019-06-15T10:11:06.069Z,33.62
2019-06-15T10:12:06.150Z,33.62
2019-06-15T10:13:05.722Z,33.62
2019-06-15T10:14:05.729Z,33.50
2019-06-15T10:15:06.280Z,33.44
2019-06-15T10:16:06.635Z,33.38
2019-06-15T10:17:05.512Z,33.25
2019-06-15T10:18:05.655Z,33.19
2019-06-15T10:19:06.067Z,33.19
2019-06-15T10:20:05.267Z,33.19
2019-06-15T10:21:05.409Z,33.19
2019-06-15T10:22:06.111Z,33.25
2019-06-15T10:23:06.116Z,33.38
2019-06-15T10:24:05.327Z,33.38
2019-06-15T10:25:05.663Z,33.31
2019-06-15T10:26:05.336Z,33.38
2019-06-15T10:27:05.807Z,33.38
2019-06-15T10:28:06.190Z,33.44
2019-06-15T10:29:05.894Z,33.38
2019-06-15T10:30:05.294Z,33.25
2019-06-15T10:31:05.493Z,33.19
2019-06-15T10:32:06.228Z,33.19
2019-06-15T10:33:05.196Z,33.19
2019-06-15T10:34:05.473Z,33.12
2019-06-15T10:35:05.893Z,33.19
2019-06-15T10:36:07.569Z,33.19
2019-06-15T10:37:05.350Z,33.31
2019-06-15T10:38:05.437Z,33.56
2019-06-15T10:39:05.696Z,33.44
2019-06-15T10:40:05.234Z,33.38
2019-06-15T10:41:05.483Z,33.25
2019-06-15T10:42:05.859Z,33.19
2019-06-15T10:43:06.895Z,33.12
2019-06-15T10:44:05.339Z,33.12
2019-06-15T10:45:05.905Z,33.12
2019-06-15T10:46:05.257Z,33.19
2019-06-15T10:47:05.747Z,33.19
2019-06-15T10:48:06.075Z,33.19
2019-06-15T10:49:05.066Z,33.12
2019-06-15T10:50:05.819Z,33.06
2019-06-15T10:51:05.898Z,33.06
2019-06-15T10:52:05.923Z,32.94
2019-06-15T10:53:06.008Z,32.88
2019-06-15T10:54:05.582Z,32.88
2019-06-15T10:55:06.444Z,32.88
2019-06-15T10:56:05.703Z,32.88
2019-06-15T10:57:05.451Z,32.88
2019-06-15T10:58:06.122Z,32.88
2019-06-15T10:59:06.071Z,32.94
2019-06-15T11:00:05.996Z,33.00
2019-06-15T11:01:06.112Z,33.06
2019-06-15T11:02:05.906Z,33.06
2019-06-15T11:03:06.021Z,33.12
2019-06-15T11:04:05.657Z,33.00
2019-06-15T11:05:06.226Z,32.88
2019-06-15T11:06:05.418Z,32.88
2019-06-15T11:07:05.843Z,32.81
2019-06-15T11:08:05.981Z,32.75
2019-06-15T11:09:05.764Z,32.69
2019-06-15T11:10:05.445Z,32.69
2019-06-15T11:11:05.936Z,32.81
2019-06-15T11:12:05.728Z,33.00
2019-06-15T11:13:05.512Z,33.06
2019-06-15T11:14:05.288Z,33.12
2019-06-15T11:15:05.988Z,33.12
2019-06-15T11:16:06.126Z,33.19
2019-06-15T11:17:05.696Z,33.25
2019-06-15T11:18:06.309Z,33.38
2019-06-15T11:19:05.130Z,33.31
2019-06-15T11:20:05.973Z,33.56
2019-06-15T11:21:05.727Z,33.44
2019-06-15T11:22:06.099Z,33.38
2019-06-15T11:23:05.479Z,33.50
2019-06-15T11:24:05.500Z,33.56
2019-06-15T11:25:05.978Z,33.56
2019-06-15T11:26:05.599Z,33.50
2019-06-15T11:27:06.155Z,33.44
2019-06-15T11:28:06.386Z,33.50
2019-06-15T11:29:06.387Z,33.44
2019-06-15T11:30:13.417Z,33.44
2019-06-15T11:31:05.297Z,33.38
2019-06-15T11:32:05.289Z,33.25
2019-06-15T11:33:06.158Z,33.25
2019-06-15T11:34:05.333Z,33.25
2019-06-15T11:35:06.355Z,33.19
2019-06-15T11:36:06.009Z,33.31
2019-06-15T11:37:05.881Z,33.31
2019-06-15T11:38:06.322Z,33.25
2019-06-15T11:39:06.287Z,33.12
2019-06-15T11:40:05.989Z,33.12
2019-06-15T11:41:05.805Z,33.06
2019-06-15T11:42:05.870Z,33.06
2019-06-15T11:43:05.371Z,33.06
2019-06-15T11:44:05.738Z,33.19
2019-06-15T11:45:05.431Z,33.12
2019-06-15T11:46:05.533Z,33.06
2019-06-15T11:47:05.708Z,33.00
2019-06-15T11:48:05.961Z,32.94
2019-06-15T11:49:05.755Z,33.00
2019-06-15T11:50:06.096Z,33.06
2019-06-15T11:51:05.667Z,33.06
2019-06-15T11:52:05.547Z,33.00
2019-06-15T11:53:05.952Z,32.94
2019-06-15T11:54:05.240Z,33.00
2019-06-15T11:55:06.642Z,33.00
2019-06-15T11:56:05.068Z,33.06
2019-06-15T11:57:05.680Z,33.06
2019-06-15T11:58:05.588Z,33.00
2019-06-15T11:59:05.530Z,32.94
2019-06-15T12:00:05.638Z,33.00
2019-06-15T12:01:05.917Z,33.00
2019-06-15T12:02:05.759Z,33.00
2019-06-15T12:03:06.071Z,33.00
2019-06-15T12:04:05.307Z,33.12
2019-06-15T12:05:05.587Z,33.19
2019-06-15T12:06:05.703Z,33.19
2019-06-15T12:07:06.293Z,33.25
2019-06-15T12:08:05.795Z,33.31
2019-06-15T12:09:05.381Z,33.25
2019-06-15T12:10:05.671Z,33.31
2019-06-15T12:11:05.923Z,33.31
2019-06-15T12:12:05.251Z,33.31
2019-06-15T12:13:06.012Z,33.12
2019-06-15T12:14:05.793Z,33.12
2019-06-15T12:15:06.255Z,33.12
2019-06-15T12:16:05.730Z,33.06
2019-06-15T12:17:06.167Z,33.06
2019-06-15T12:18:05.751Z,33.12
2019-06-15T12:19:06.136Z,33.19
2019-06-15T12:20:06.127Z,33.31
2019-06-15T12:21:05.575Z,33.38
2019-06-15T12:22:05.803Z,33.50
2019-06-15T12:23:05.874Z,33.62
2019-06-15T12:24:05.964Z,33.56
2019-06-15T12:25:05.168Z,33.44
2019-06-15T12:26:05.679Z,33.44
2019-06-15T12:27:05.892Z,33.44
2019-06-15T12:28:05.664Z,33.44
2019-06-15T12:29:07.771Z,33.44
2019-06-15T12:30:05.652Z,33.44
2019-06-15T12:31:06.049Z,33.56
2019-06-15T12:32:06.298Z,33.50
2019-06-15T12:33:05.434Z,33.50
2019-06-15T12:34:05.475Z,33.56
2019-06-15T12:35:05.858Z,33.62
2019-06-15T12:36:18.249Z,33.62
2019-06-15T12:37:06.075Z,33.75
2019-06-15T12:38:05.323Z,33.88
2019-06-15T12:39:05.570Z,34.00
2019-06-15T12:40:06.045Z,33.81
2019-06-15T12:41:05.656Z,33.75
2019-06-15T12:42:05.248Z,33.75
2019-06-15T12:43:05.811Z,33.56
2019-06-15T12:44:05.246Z,33.44
2019-06-15T12:45:05.742Z,33.31
2019-06-15T12:46:05.668Z,33.25
2019-06-15T12:47:05.347Z,33.12
2019-06-15T12:48:05.739Z,33.06
2019-06-15T12:49:05.418Z,33.00
2019-06-15T12:50:05.403Z,32.94
2019-06-15T12:51:05.724Z,32.88
2019-06-15T12:52:05.569Z,32.81